Time;durP1;ratioP1;P1;durP2;ratioP2;P2;SDS_P1;SDS_P2;PMS_P1;PMS_P2;Temp;Humidity;BMP_temperature;BMP_pressure;BME280_temperature;BME280_humidity;BME280_pressure;Samples;Min_cycle;Max_cycle;Signal;HPM_P1;HPM_P2
2021/12/09 00:01:03;;;;;;;38.97;19.37;;;;;;;-0.56;100.00;94110.16;5032248;28;20300;-59
2021/12/09 00:03:35;;;;;;;39.80;20.93;;;;;;;-0.82;100.00;94095.72;5033963;28;20173;-61
2021/12/09 00:06:03;;;;;;;42.10;20.47;;;;;;;-0.78;100.00;94121.28;5033767;28;20702;-62
2021/12/09 00:08:29;;;;;;;37.33;21.03;;;;;;;-0.75;100.00;94113.69;5033549;28;20264;-60
2021/12/09 00:10:57;;;;;;;40.23;20.30;;;;;;;-0.77;100.00;94112.94;5033747;28;20198;-59
2021/12/09 00:13:24;;;;;;;36.07;19.40;;;;;;;-0.76;100.00;94115.34;5040796;22;20236;-59
2021/12/09 00:15:50;;;;;;;29.93;17.43;;;;;;;-0.57;100.00;94105.25;5040753;22;20270;-61
2021/12/09 00:18:16;;;;;;;35.87;18.80;;;;;;;-0.51;100.00;94100.78;5033373;28;20213;-59
2021/12/09 00:20:42;;;;;;;35.47;19.20;;;;;;;-0.53;100.00;94104.22;5033783;28;20276;-61
2021/12/09 00:23:08;;;;;;;32.73;17.80;;;;;;;-0.55;100.00;94116.78;5033186;28;20205;-58
2021/12/09 00:25:35;;;;;;;33.97;17.13;;;;;;;-0.32;100.00;94123.06;5032072;28;20208;-61
2021/12/09 00:28:00;;;;;;;31.20;15.70;;;;;;;-0.40;100.00;94118.47;5033214;28;20189;-59
2021/12/09 00:30:28;;;;;;;27.87;15.20;;;;;;;-0.37;100.00;94113.34;5033474;28;20208;-62
2021/12/09 00:32:54;;;;;;;27.07;15.67;;;;;;;-0.44;100.00;94109.53;5031769;28;20207;-60
2021/12/09 00:35:21;;;;;;;27.83;14.50;;;;;;;-0.47;100.00;94102.22;5033353;28;20247;-62
2021/12/09 00:38:47;;;;;;;25.17;15.23;;;;;;;-0.61;100.00;94092.13;5032867;28;20188;-58
2021/12/09 00:40:41;;;;;;;26.93;14.33;;;;;;;-0.56;100.00;94077.72;5020012;28;20729;-59
2021/12/09 00:43:07;;;;;;;29.10;15.70;;;;;;;-0.61;100.00;94064.69;5032610;28;20239;-59
2021/12/09 00:45:33;;;;;;;26.67;15.23;;;;;;;-0.51;100.00;94050.84;5033093;28;20291;-61
2021/12/09 00:47:58;;;;;;;27.87;16.23;;;;;;;-0.45;100.00;94053.03;5033049;28;20298;-60
2021/12/09 00:50:24;;;;;;;34.63;16.30;;;;;;;-0.34;100.00;94049.94;5033160;28;20201;-59
2021/12/09 00:52:50;;;;;;;28.77;15.87;;;;;;;-0.32;100.00;94046.50;5032900;28;20232;-58
2021/12/09 00:55:16;;;;;;;32.13;17.23;;;;;;;-0.31;100.00;94048.13;5033022;28;20629;-59
2021/12/09 00:57:43;;;;;;;28.27;15.37;;;;;;;-0.14;100.00;94049.69;5032543;28;20188;-60
2021/12/09 01:00:13;;;;;;;27.70;15.57;;;;;;;0.00;100.00;94063.06;5032547;28;20204;-59
2021/12/09 01:02:38;;;;;;;28.97;15.13;;;;;;;0.10;100.00;94057.59;5030452;28;20268;-61
2021/12/09 01:05:06;;;;;;;25.83;14.97;;;;;;;0.27;100.00;94058.28;5031356;28;20216;-59
2021/12/09 01:07:32;;;;;;;27.90;14.43;;;;;;;0.28;100.00;94064.09;5032716;28;20785;-60
2021/12/09 01:09:58;;;;;;;23.27;14.73;;;;;;;0.44;100.00;94078.16;5032671;28;20198;-58
2021/12/09 01:12:24;;;;;;;24.73;15.63;;;;;;;0.46;100.00;94080.56;5032463;28;20625;-60
2021/12/09 01:14:50;;;;;;;24.33;14.17;;;;;;;0.45;100.00;94079.75;5030984;28;20601;-61
2021/12/09 01:17:15;;;;;;;26.63;14.47;;;;;;;0.49;100.00;94086.19;5039578;22;20645;-62
2021/12/09 01:19:41;;;;;;;23.13;13.83;;;;;;;0.63;100.00;94083.75;5030890;28;20195;-61
2021/12/09 01:22:07;;;;;;;24.13;13.63;;;;;;;0.56;100.00;94081.66;5032606;28;20221;-61
2021/12/09 01:24:32;;;;;;;26.23;14.60;;;;;;;0.55;100.00;94065.03;5032197;28;20209;-58
2021/12/09 01:26:59;;;;;;;27.17;15.27;;;;;;;0.62;100.00;94068.84;5032732;28;20276;-61
2021/12/09 01:29:33;;;;;;;23.20;13.43;;;;;;;0.65;100.00;94063.63;5032224;28;20710;-63
2021/12/09 01:32:03;;;;;;;28.70;15.13;;;;;;;0.82;100.00;94079.31;5031374;28;20201;-59
2021/12/09 01:34:28;;;;;;;27.63;15.57;;;;;;;0.94;100.00;94072.81;5032210;28;20201;-61
2021/12/09 01:36:55;;;;;;;31.03;18.00;;;;;;;0.69;100.00;94070.88;5032620;28;20186;-62
2021/12/09 01:39:21;;;;;;;31.77;17.33;;;;;;;0.45;100.00;94054.75;5032208;28;20169;-59
2021/12/09 01:41:47;;;;;;;31.20;16.47;;;;;;;0.18;100.00;94063.78;5032321;28;20670;-58
2021/12/09 01:44:13;;;;;;;29.67;16.63;;;;;;;0.17;100.00;94062.16;5031974;28;20630;-59
2021/12/09 01:46:38;;;;;;;29.80;16.57;;;;;;;0.03;100.00;94063.78;5030836;28;20216;-59
2021/12/09 01:49:04;;;;;;;31.47;16.33;;;;;;;0.00;100.00;94068.06;5032241;28;20183;-60
2021/12/09 01:51:30;;;;;;;30.20;17.13;;;;;;;0.13;100.00;94058.22;5019940;23;20230;-58
2021/12/09 01:53:55;;;;;;;30.93;17.80;;;;;;;0.32;100.00;94055.53;5012268;28;20185;-58
2021/12/09 01:56:23;;;;;;;30.80;18.13;;;;;;;0.42;100.00;94059.13;5012087;28;20194;-59
2021/12/09 01:58:52;;;;;;;31.00;16.17;;;;;;;0.56;100.00;94051.66;5010771;28;20190;-62
2021/12/09 02:01:17;;;;;;;32.63;18.87;;;;;;;0.58;100.00;94044.88;5011927;28;20210;-62
2021/12/09 02:03:43;;;;;;;37.23;20.53;;;;;;;0.80;100.00;94071.09;5012187;28;20179;-60
2021/12/09 02:06:09;;;;;;;39.10;21.20;;;;;;;0.55;100.00;94073.34;5011006;28;20210;-61
2021/12/09 02:08:35;;;;;;;41.07;20.90;;;;;;;0.47;100.00;94057.16;5012175;28;20717;-60
2021/12/09 02:11:00;;;;;;;42.17;22.17;;;;;;;0.63;100.00;94093.75;5011024;28;20298;-61
2021/12/09 02:13:27;;;;;;;44.87;23.83;;;;;;;0.47;100.00;94072.97;5014590;28;20719;-61
2021/12/09 02:15:54;;;;;;;45.50;23.40;;;;;;;0.51;100.00;94078.59;5014860;28;20655;-59
2021/12/09 02:18:21;;;;;;;41.17;21.83;;;;;;;0.41;100.00;94052.50;5015995;28;20229;-60
2021/12/09 02:21:03;;;;;;;37.83;21.83;;;;;;;0.51;100.00;94053.59;5016092;28;20218;-58
2021/12/09 02:23:28;;;;;;;47.60;24.07;;;;;;;0.66;100.00;94067.75;5015847;28;20198;-61
2021/12/09 02:25:54;;;;;;;51.73;24.37;;;;;;;0.38;100.00;94058.50;5015791;28;20223;-59
2021/12/09 02:28:19;;;;;;;48.57;24.17;;;;;;;0.38;100.00;94057.69;5014601;28;20198;-62
2021/12/09 02:30:45;;;;;;;42.87;22.57;;;;;;;0.25;100.00;94052.56;5024590;23;20230;-59
2021/12/09 02:33:10;;;;;;;46.20;23.90;;;;;;;0.43;100.00;94080.72;5014355;28;20208;-60
2021/12/09 02:35:38;;;;;;;48.83;25.63;;;;;;;-0.13;100.00;94081.28;5015480;28;20210;-58
2021/12/09 02:38:04;;;;;;;44.97;25.27;;;;;;;-0.49;100.00;94083.22;5015845;28;20218;-58
2021/12/09 02:40:33;;;;;;;50.77;25.60;;;;;;;-0.30;100.00;94079.69;5015782;28;20207;-61
2021/12/09 02:42:59;;;;;;;51.53;26.20;;;;;;;-0.53;100.00;94076.78;5015444;28;20210;-60
2021/12/09 02:45:25;;;;;;;52.70;27.33;;;;;;;-0.39;100.00;94067.69;5015228;28;20726;-59
2021/12/09 02:47:50;;;;;;;55.10;28.00;;;;;;;-0.26;100.00;94062.84;5015546;28;20557;-61
2021/12/09 02:50:15;;;;;;;55.73;27.10;;;;;;;-0.12;100.00;94067.91;5014204;28;20595;-59
2021/12/09 02:52:41;;;;;;;45.73;25.17;;;;;;;-0.10;100.00;94076.94;5015277;28;20215;-58
2021/12/09 02:55:14;;;;;;;53.30;25.87;;;;;;;-0.12;100.00;94067.91;5015478;28;20755;-58
2021/12/09 02:57:40;;;;;;;52.80;26.53;;;;;;;0.06;100.00;94073.63;5015274;28;20186;-61
2021/12/09 03:00:09;;;;;;;48.13;24.93;;;;;;;0.20;100.00;94068.69;5015419;28;20222;-58
2021/12/09 03:02:35;;;;;;;46.60;25.27;;;;;;;0.16;100.00;94085.56;5014919;28;20222;-58
2021/12/09 03:05:03;;;;;;;49.73;24.93;;;;;;;-0.07;100.00;94071.78;5015344;28;20622;-59
2021/12/09 03:07:38;;;;;;;50.10;26.03;;;;;;;0.01;100.00;94076.38;5015124;28;20233;-60
2021/12/09 03:10:09;;;;;;;52.27;25.80;;;;;;;-0.13;100.00;94067.13;5015329;28;20682;-61
2021/12/09 03:12:39;;;;;;;58.23;25.07;;;;;;;-0.17;100.00;94064.88;5014831;28;20191;-59
2021/12/09 03:15:11;;;;;;;53.77;26.97;;;;;;;-0.41;100.00;94053.66;5028344;22;20236;-62
2021/12/09 03:17:40;;;;;;;48.43;27.30;;;;;;;-0.22;100.00;94060.09;5034656;28;20209;-58
2021/12/09 03:20:09;;;;;;;59.03;29.00;;;;;;;-0.17;100.00;94050.69;5034782;28;20280;-62
2021/12/09 03:22:35;;;;;;;50.97;26.10;;;;;;;-0.04;100.00;94051.63;5034320;28;20216;-62
2021/12/09 03:25:00;;;;;;;47.43;25.83;;;;;;;-0.08;100.00;94045.19;5032250;28;20214;-59
2021/12/09 03:27:26;;;;;;;54.57;27.73;;;;;;;-0.07;100.00;94056.81;5034281;28;20178;-64
2021/12/09 03:29:51;;;;;;;46.90;26.73;;;;;;;0.13;100.00;94077.41;5034258;28;20201;-61
2021/12/09 03:32:19;;;;;;;60.67;28.97;;;;;;;0.06;100.00;94086.13;5034419;28;20185;-60
2021/12/09 03:34:45;;;;;;;58.30;28.50;;;;;;;-0.43;100.00;94080.41;5034467;28;20582;-62
2021/12/09 03:37:18;;;;;;;67.00;30.87;;;;;;;-0.26;100.00;94095.28;5034195;28;20186;-59
2021/12/09 03:39:44;;;;;;;57.60;27.70;;;;;;;-0.07;100.00;94086.78;5034276;28;20229;-62
2021/12/09 03:42:14;;;;;;;55.93;27.47;;;;;;;0.05;100.00;94085.31;5033972;28;20700;-61
2021/12/09 03:44:41;;;;;;;52.00;26.27;;;;;;;0.23;100.00;94104.31;5034052;28;20559;-58
2021/12/09 03:47:09;;;;;;;55.03;26.30;;;;;;;0.03;100.00;94079.59;5041290;22;20229;-60
2021/12/09 03:49:36;;;;;;;53.27;25.60;;;;;;;0.02;100.00;94064.69;5032306;28;20232;-60
2021/12/09 03:52:03;;;;;;;56.53;29.23;;;;;;;0.03;100.00;94074.59;5034528;28;20180;-61
2021/12/09 03:54:29;;;;;;;58.27;26.30;;;;;;;-0.29;100.00;94058.03;5034061;28;20205;-62
2021/12/09 03:56:55;;;;;;;57.03;27.90;;;;;;;-0.34;100.00;94068.25;5034029;28;20185;-59
2021/12/09 03:59:21;;;;;;;50.33;25.40;;;;;;;-0.26;100.00;94060.34;5034341;28;20216;-59
2021/12/09 04:01:48;;;;;;;51.60;25.07;;;;;;;-0.16;100.00;94071.44;5034235;28;20219;-59
2021/12/09 04:04:14;;;;;;;54.90;24.90;;;;;;;-0.07;100.00;94084.28;5032149;28;20188;-58
2021/12/09 04:06:40;;;;;;;52.03;25.67;;;;;;;-0.06;100.00;94088.38;5032767;28;20639;-61
2021/12/09 04:09:09;;;;;;;47.93;26.20;;;;;;;-0.30;100.00;94094.66;5033710;28;20209;-58
2021/12/09 04:11:35;;;;;;;50.67;27.07;;;;;;;-0.27;100.00;94089.53;5033613;28;20670;-59
2021/12/09 04:14:00;;;;;;;57.17;28.37;;;;;;;-0.04;100.00;94091.59;5032049;28;20708;-62
2021/12/09 04:16:27;;;;;;;49.83;25.37;;;;;;;0.19;100.00;94090.38;5040734;22;20307;-59
2021/12/09 04:18:52;;;;;;;45.30;24.37;;;;;;;0.32;100.00;94085.53;5031957;28;20651;-59
2021/12/09 04:21:18;;;;;;;50.23;27.27;;;;;;;0.36;100.00;94089.47;5033100;28;20208;-58
2021/12/09 04:23:44;;;;;;;52.13;25.63;;;;;;;0.40;100.00;94104.22;5033238;28;20268;-59
2021/12/09 04:26:10;;;;;;;55.77;26.97;;;;;;;0.36;100.00;94091.97;5033498;28;20574;-61
2021/12/09 04:28:37;;;;;;;50.17;25.63;;;;;;;0.51;100.00;94096.91;5033140;28;20181;-60
2021/12/09 04:31:03;;;;;;;48.57;25.77;;;;;;;0.66;100.00;94110.28;5033561;28;20225;-61
2021/12/09 04:33:29;;;;;;;49.97;25.70;;;;;;;0.66;100.00;94108.59;5033020;28;20181;-59
2021/12/09 04:35:56;;;;;;;58.23;27.47;;;;;;;0.75;100.00;94109.75;5033251;28;20212;-59
2021/12/09 04:38:22;;;;;;;48.20;25.43;;;;;;;0.65;100.00;94126.16;5032968;28;20192;-63
2021/12/09 04:40:47;;;;;;;53.37;27.10;;;;;;;0.30;100.00;94100.59;5033197;28;20205;-61
2021/12/09 04:43:13;;;;;;;52.83;27.10;;;;;;;-0.08;100.00;94094.31;5031436;28;20317;-61
2021/12/09 04:45:40;;;;;;;51.23;25.77;;;;;;;0.15;100.00;94096.41;5040572;22;20244;-62
2021/12/09 04:48:07;;;;;;;53.10;26.50;;;;;;;0.18;100.00;94105.44;5031493;28;20186;-59
2021/12/09 04:50:35;;;;;;;51.03;25.13;;;;;;;0.08;100.00;94099.34;5033052;28;20208;-59
2021/12/09 04:53:00;;;;;;;48.57;25.43;;;;;;;0.21;100.00;94112.78;5032699;28;20239;-62
2021/12/09 04:55:26;;;;;;;45.80;25.07;;;;;;;0.24;100.00;94098.44;5032955;28;20683;-61
2021/12/09 04:57:52;;;;;;;49.93;25.63;;;;;;;0.32;100.00;94108.81;5031323;28;20180;-60
2021/12/09 05:00:21;;;;;;;50.63;26.23;;;;;;;0.34;100.00;94121.22;5032261;28;20271;-62
2021/12/09 05:03:08;;;;;;;48.50;25.87;;;;;;;0.47;100.00;94127.97;5032487;28;20205;-62
2021/12/09 05:05:39;;;;;;;53.23;27.10;;;;;;;0.58;100.00;94135.72;5032784;28;20209;-62
2021/12/09 05:08:12;;;;;;;56.40;26.60;;;;;;;0.73;100.00;94129.03;5031107;28;20216;-59
2021/12/09 05:10:59;;;;;;;50.47;26.33;;;;;;;0.53;100.00;94135.13;5032595;28;20212;-59
2021/12/09 05:13:27;;;;;;;55.80;27.67;;;;;;;0.21;100.00;94111.09;5032442;28;20167;-62
2021/12/09 05:15:55;;;;;;;57.33;29.27;;;;;;;-0.16;100.00;94112.22;5030965;28;20305;-61
2021/12/09 05:18:23;;;;;;;50.33;26.43;;;;;;;-0.33;100.00;94109.00;5032183;28;20185;-61
2021/12/09 05:20:50;;;;;;;56.43;27.87;;;;;;;-0.19;100.00;94101.59;5047217;22;20253;-61
2021/12/09 05:23:17;;;;;;;52.40;27.00;;;;;;;-0.04;100.00;94109.06;5031918;28;20267;-59
2021/12/09 05:25:43;;;;;;;55.27;28.83;;;;;;;0.09;100.00;94120.91;5032239;28;20208;-62
2021/12/09 05:28:11;;;;;;;50.67;26.90;;;;;;;-0.02;100.00;94134.78;5032123;28;20189;-59
2021/12/09 05:32:07;;;;;;;58.17;28.57;;;;;;;0.11;100.00;94127.44;5030261;28;20622;-59
2021/12/09 05:33:28;;;;;;;60.07;29.03;;;;;;;0.08;100.00;94124.31;5032132;28;20255;-60
2021/12/09 05:35:54;;;;;;;58.20;27.63;;;;;;;0.11;100.00;94127.44;5039309;22;20233;-62
2021/12/09 05:38:20;;;;;;;55.63;26.10;;;;;;;-0.07;100.00;94119.25;5030770;28;20177;-63
2021/12/09 05:40:47;;;;;;;55.70;27.60;;;;;;;-0.26;100.00;94118.56;5032311;28;20223;-62
2021/12/09 05:43:14;;;;;;;52.37;26.73;;;;;;;-0.48;100.00;94124.75;5032026;28;20205;-61
2021/12/09 05:45:41;;;;;;;53.70;27.73;;;;;;;-0.31;100.00;94137.19;5031700;28;20252;-62
2021/12/09 05:48:07;;;;;;;54.00;28.20;;;;;;;-0.39;100.00;94121.78;5029918;28;20173;-59
2021/12/09 05:50:34;;;;;;;51.40;26.07;;;;;;;-0.36;100.00;94119.13;5032087;28;20201;-59
2021/12/09 05:52:59;;;;;;;57.40;26.77;;;;;;;-0.28;100.00;94117.84;5031968;28;20280;-62
2021/12/09 05:55:25;;;;;;;54.17;26.77;;;;;;;-0.19;100.00;94129.88;5041507;22;20321;-62
2021/12/09 05:57:51;;;;;;;50.70;27.20;;;;;;;0.05;100.00;94147.75;5031574;28;20608;-62
2021/12/09 06:00:17;;;;;;;57.03;28.10;;;;;;;-0.06;100.00;94127.53;5031960;28;20262;-60
2021/12/09 06:02:43;;;;;;;50.40;26.13;;;;;;;-0.11;100.00;94125.28;5031599;28;20686;-59
2021/12/09 06:05:09;;;;;;;52.77;25.60;;;;;;;-0.14;100.00;94130.41;5031885;28;20593;-61
2021/12/09 06:07:35;;;;;;;53.50;27.10;;;;;;;0.06;100.00;94131.91;5031567;28;20184;-60
2021/12/09 06:10:02;;;;;;;51.90;26.30;;;;;;;-0.21;100.00;94128.34;5030185;28;20206;-64
2021/12/09 06:12:28;;;;;;;54.03;26.83;;;;;;;-0.14;100.00;94144.59;5031119;28;20178;-61
2021/12/09 06:14:53;;;;;;;59.47;28.07;;;;;;;-0.15;100.00;94133.81;5030152;28;20537;-58
2021/12/09 06:17:19;;;;;;;47.93;24.97;;;;;;;-0.16;100.00;94134.69;5030100;28;20188;-61
2021/12/09 06:19:44;;;;;;;55.20;27.87;;;;;;;-0.07;100.00;94129.22;5031603;28;20204;-60
2021/12/09 06:22:10;;;;;;;53.77;27.27;;;;;;;-0.23;100.00;94130.09;5031285;28;20205;-62
2021/12/09 06:24:35;;;;;;;60.63;28.00;;;;;;;-0.43;100.00;94133.63;5031224;28;20225;-63
2021/12/09 06:27:03;;;;;;;49.20;23.63;;;;;;;-0.33;100.00;94158.91;5031411;28;20610;-58
2021/12/09 06:29:28;;;;;;;52.30;24.20;;;;;;;-0.39;100.00;94159.22;5029931;28;20714;-62
2021/12/09 06:31:54;;;;;;;49.27;23.57;;;;;;;-0.25;100.00;94155.16;5031419;28;20618;-62
2021/12/09 06:34:20;;;;;;;49.47;22.97;;;;;;;-0.28;100.00;94161.97;5031356;28;20202;-59
2021/12/09 06:36:45;;;;;;;40.93;21.40;;;;;;;-0.25;100.00;94162.66;5031581;28;20174;-62
2021/12/09 06:39:12;;;;;;;43.37;21.17;;;;;;;-0.16;100.00;94142.19;5031157;28;20210;-62
2021/12/09 06:41:38;;;;;;;36.87;19.80;;;;;;;-0.23;100.00;94135.91;5030970;28;20230;-59
2021/12/09 06:44:04;;;;;;;35.87;19.27;;;;;;;-0.10;100.00;94156.84;5031304;28;20182;-63
2021/12/09 06:46:29;;;;;;;47.53;20.93;;;;;;;-0.17;100.00;94160.56;5031200;28;20283;-58
2021/12/09 06:48:55;;;;;;;42.53;21.53;;;;;;;-0.09;100.00;94167.66;5031157;28;20194;-60
2021/12/09 06:51:21;;;;;;;37.97;20.27;;;;;;;-0.22;100.00;94147.50;5030827;28;20205;-63
2021/12/09 06:53:46;;;;;;;41.30;20.87;;;;;;;-0.27;100.00;94139.44;5030993;28;20261;-62
2021/12/09 06:56:12;;;;;;;45.43;22.67;;;;;;;-0.06;100.00;94162.47;5031430;28;20213;-59
2021/12/09 06:58:37;;;;;;;50.47;23.37;;;;;;;-0.04;100.00;94141.53;5030940;28;20651;-61
2021/12/09 07:01:04;;;;;;;44.47;21.90;;;;;;;-0.01;100.00;94128.91;5033375;28;20691;-62
2021/12/09 07:03:30;;;;;;;52.00;23.57;;;;;;;0.02;100.00;94130.44;5034411;28;20275;-58
2021/12/09 07:05:56;;;;;;;50.70;21.80;;;;;;;0.07;100.00;94135.19;5034960;28;20564;-61
2021/12/09 07:08:22;;;;;;;47.13;21.73;;;;;;;-0.16;100.00;94121.38;5034511;28;20276;-61
2021/12/09 07:10:49;;;;;;;45.03;19.90;;;;;;;-0.02;100.00;94127.28;5036878;23;20539;-60
2021/12/09 07:13:14;;;;;;;47.03;19.70;;;;;;;-0.12;100.00;94115.34;5014510;28;20652;-60
2021/12/09 07:15:40;;;;;;;50.17;22.50;;;;;;;0.11;100.00;94129.13;5014443;28;20283;-59
2021/12/09 07:18:06;;;;;;;51.97;22.17;;;;;;;0.08;100.00;94135.13;5014278;28;20201;-62
2021/12/09 07:20:32;;;;;;;44.20;22.00;;;;;;;0.42;100.00;94144.13;5014589;28;20301;-60
2021/12/09 07:22:59;;;;;;;38.50;20.53;;;;;;;0.49;100.00;94145.38;5014275;28;20222;-60
2021/12/09 07:25:26;;;;;;;42.73;19.13;;;;;;;2.96;100.00;94125.56;5014414;28;20202;-58
2021/12/09 07:27:52;;;;;;;51.20;22.67;;;;;;;4.14;100.00;94118.44;5014402;28;20187;-59
2021/12/09 07:30:20;;;;;;;47.50;22.43;;;;;;;4.72;100.00;94109.38;5014339;28;20257;-62
2021/12/09 07:32:46;;;;;;;42.10;22.87;;;;;;;4.99;100.00;94113.22;5013895;28;20565;-61
2021/12/09 07:35:15;;;;;;;47.80;21.63;;;;;;;5.46;100.00;94106.47;5014042;28;20194;-60
2021/12/09 07:37:41;;;;;;;44.60;22.63;;;;;;;6.71;100.00;94097.63;5014411;28;20242;-61
2021/12/09 07:40:09;;;;;;;46.87;23.70;;;;;;;7.28;100.00;94099.75;5013945;28;20190;-62
2021/12/09 07:42:36;;;;;;;45.97;22.10;;;;;;;6.47;94.95;94278.78;5013993;28;20210;-60
2021/12/09 07:45:03;;;;;;;47.57;22.90;;;;;;;5.29;98.63;94205.19;5014086;28;20691;-61
2021/12/09 07:47:28;;;;;;;44.37;23.07;;;;;;;4.33;100.00;94153.22;5013700;28;20189;-61
2021/12/09 07:49:53;;;;;;;44.70;23.10;;;;;;;3.40;100.00;94120.97;5012288;28;20202;-64
2021/12/09 07:52:19;;;;;;;42.97;20.23;;;;;;;2.93;100.00;94123.22;5013728;28;20574;-62
2021/12/09 07:54:45;;;;;;;52.37;24.63;;;;;;;2.26;100.00;94101.56;5013680;28;20195;-60
2021/12/09 07:57:10;;;;;;;45.00;22.33;;;;;;;2.17;100.00;94103.84;5012445;28;20801;-62
2021/12/09 07:59:36;;;;;;;51.57;24.00;;;;;;;1.91;100.00;94107.13;5013512;28;20207;-60
2021/12/09 08:02:02;;;;;;;58.33;25.30;;;;;;;1.91;100.00;94097.09;5013508;28;20218;-60
2021/12/09 08:04:28;;;;;;;58.63;24.47;;;;;;;2.02;100.00;94124.84;5013587;28;20671;-63
2021/12/09 08:06:54;;;;;;;50.43;24.07;;;;;;;1.84;100.00;94101.66;5032431;22;20233;-63
2021/12/09 08:09:19;;;;;;;52.20;23.23;;;;;;;1.92;100.00;94118.78;5033560;28;20191;-59
2021/12/09 08:11:45;;;;;;;54.27;22.43;;;;;;;1.81;100.00;94114.41;5033002;28;20533;-62
2021/12/09 08:14:11;;;;;;;51.67;23.63;;;;;;;1.61;100.00;94093.03;5033152;28;20194;-63
2021/12/09 08:16:39;;;;;;;44.90;21.90;;;;;;;1.73;100.00;94130.78;5020954;22;20225;-63
2021/12/09 08:19:06;;;;;;;48.23;21.23;;;;;;;1.68;100.00;94134.34;5013482;28;20178;-62
2021/12/09 08:21:35;;;;;;;46.80;21.93;;;;;;;3.46;100.00;94113.94;5013091;28;20206;-62
2021/12/09 08:24:01;;;;;;;48.33;22.17;;;;;;;4.48;100.00;94116.94;5013619;28;20229;-61
2021/12/09 08:26:26;;;;;;;54.00;25.23;;;;;;;4.96;100.00;94112.66;5013173;28;20621;-59
2021/12/09 08:28:52;;;;;;;48.90;24.07;;;;;;;4.46;100.00;94188.41;5013178;28;20198;-60
2021/12/09 08:31:17;;;;;;;50.97;25.87;;;;;;;3.59;100.00;94175.03;5013031;28;20193;-61
2021/12/09 08:33:43;;;;;;;44.63;23.67;;;;;;;3.15;100.00;94173.69;5013212;28;20175;-62
2021/12/09 08:36:10;;;;;;;51.47;25.93;;;;;;;2.78;100.00;94146.81;5013630;28;20234;-60
2021/12/09 08:38:35;;;;;;;51.23;24.07;;;;;;;2.63;100.00;94121.88;5013132;28;20175;-61
2021/12/09 08:41:02;;;;;;;44.23;22.63;;;;;;;2.42;100.00;94131.53;5013570;28;20230;-58
2021/12/09 08:43:29;;;;;;;43.77;21.20;;;;;;;2.67;100.00;94139.13;5013260;28;20348;-61
2021/12/09 08:45:56;;;;;;;45.53;22.63;;;;;;;2.71;100.00;94122.97;5012100;28;20217;-60
2021/12/09 08:48:23;;;;;;;39.43;19.90;;;;;;;2.86;100.00;94104.47;4995400;28;20207;-59
2021/12/09 08:50:50;;;;;;;39.93;19.93;;;;;;;3.17;100.00;94123.38;5013184;28;20199;-59
2021/12/09 08:53:18;;;;;;;35.73;19.47;;;;;;;3.18;100.00;94100.69;5012854;28;20213;-60
2021/12/09 08:55:45;;;;;;;37.07;18.63;;;;;;;3.27;100.00;94101.78;5012808;28;20269;-63
2021/12/09 08:58:12;;;;;;;33.53;19.17;;;;;;;3.08;100.00;94134.81;5012570;28;20186;-59
2021/12/09 09:00:38;;;;;;;35.90;19.93;;;;;;;3.03;100.00;94094.13;5020008;23;20722;-59
2021/12/09 09:03:05;;;;;;;36.00;19.07;;;;;;;3.50;100.00;94131.22;5012490;28;20260;-62
2021/12/09 09:05:33;;;;;;;37.57;19.27;;;;;;;3.81;100.00;94124.97;5012912;28;20281;-59
2021/12/09 09:07:59;;;;;;;36.47;17.90;;;;;;;4.12;100.00;94124.50;5012765;28;20183;-60
2021/12/09 09:10:28;;;;;;;41.30;21.00;;;;;;;3.90;100.00;94139.44;5028627;23;20226;-60
2021/12/09 09:12:55;;;;;;;36.97;18.63;;;;;;;3.77;100.00;94084.16;5012926;28;20651;-62
2021/12/09 09:15:23;;;;;;;36.30;18.30;;;;;;;3.92;100.00;94130.88;5012466;28;20633;-63
2021/12/09 09:17:49;;;;;;;40.07;20.03;;;;;;;3.52;100.00;94095.94;5012366;28;20179;-62
2021/12/09 09:20:18;;;;;;;36.70;17.93;;;;;;;5.69;100.00;94038.31;5012918;28;20237;-58
2021/12/09 09:22:45;;;;;;;33.20;18.03;;;;;;;7.21;100.00;94039.72;5011607;28;20208;-62
2021/12/09 09:25:20;;;;;;;34.77;19.23;;;;;;;7.29;100.00;94186.50;5012589;28;20267;-60
2021/12/09 09:27:47;;;;;;;32.37;17.13;;;;;;;6.72;100.00;94028.53;5012357;28;20165;-59
2021/12/09 09:30:17;;;;;;;34.43;18.90;;;;;;;6.90;100.00;94022.91;5013009;28;20301;-58
2021/12/09 09:32:44;;;;;;;36.50;19.13;;;;;;;7.33;100.00;94117.88;5012594;28;20222;-62
2021/12/09 09:35:10;;;;;;;40.00;21.67;;;;;;;6.48;94.54;94151.63;5010936;28;20755;-60
2021/12/09 09:37:36;;;;;;;37.17;20.20;;;;;;;6.05;94.00;94158.34;5012027;28;20648;-63
2021/12/09 09:40:16;;;;;;;30.07;17.50;;;;;;;5.61;98.69;94059.97;5012329;28;20214;-62
2021/12/09 09:45:12;;;;;;;33.93;19.43;;;;;;;6.55;95.75;94101.47;5012502;28;20206;-60
2021/12/09 09:47:39;;;;;;;35.93;18.97;;;;;;;6.60;96.93;94112.81;5012022;28;20179;-61
2021/12/09 09:50:11;;;;;;;36.47;19.60;;;;;;;6.60;93.66;94148.16;5012178;28;20220;-62
2021/12/09 09:52:36;;;;;;;35.70;19.87;;;;;;;6.41;96.81;94091.63;5009860;28;20615;-62
2021/12/09 09:55:08;;;;;;;36.37;20.07;;;;;;;6.30;96.44;94084.09;5012115;28;20217;-61
2021/12/09 09:57:34;;;;;;;39.37;21.93;;;;;;;5.68;97.38;94029.13;5009640;28;20722;-61
2021/12/09 10:00:00;;;;;;;55.93;29.13;;;;;;;4.75;100.00;94014.28;5011932;28;20235;-61
2021/12/09 10:02:26;;;;;;;55.03;29.60;;;;;;;5.01;100.00;93995.56;5010605;28;20240;-61
2021/12/09 10:05:02;;;;;;;54.43;27.47;;;;;;;5.11;100.00;94023.38;5010834;28;20675;-62
2021/12/09 10:07:30;;;;;;;42.77;22.27;;;;;;;5.52;100.00;94000.94;5011158;28;20184;-62
2021/12/09 10:09:56;;;;;;;40.03;22.50;;;;;;;5.09;99.32;94026.03;5010764;28;20210;-59
2021/12/09 10:12:21;;;;;;;45.10;23.37;;;;;;;4.70;100.00;93977.78;5012103;28;20190;-59
2021/12/09 10:14:50;;;;;;;48.60;25.67;;;;;;;5.23;100.00;93984.72;5012316;28;20211;-60
2021/12/09 10:17:22;;;;;;;50.70;25.97;;;;;;;5.60;100.00;94012.97;5011993;28;20575;-60
2021/12/09 10:19:53;;;;;;;47.77;26.47;;;;;;;5.78;99.31;94046.88;5012235;28;20728;-62
2021/12/09 10:22:29;;;;;;;51.10;26.13;;;;;;;4.92;100.00;93996.25;5010709;28;20275;-60
2021/12/09 10:24:57;;;;;;;57.80;29.60;;;;;;;4.18;100.00;93933.75;5012117;28;20204;-62
2021/12/09 10:27:31;;;;;;;65.07;32.13;;;;;;;4.36;100.00;93994.53;5011851;28;20179;-62
2021/12/09 10:30:03;;;;;;;62.80;32.83;;;;;;;3.20;100.00;93920.59;5019282;23;20234;-60
2021/12/09 10:32:34;;;;;;;64.07;32.43;;;;;;;3.87;100.00;93992.13;4994465;28;20200;-61
2021/12/09 10:35:10;;;;;;;62.43;32.67;;;;;;;3.83;100.00;93958.06;4997958;28;20739;-62
2021/12/09 10:37:38;;;;;;;59.63;32.60;;;;;;;4.00;100.00;94004.66;5015423;28;20240;-59
2021/12/09 10:40:27;;;;;;;64.97;33.93;;;;;;;3.54;100.00;93954.25;5015562;28;20262;-63
2021/12/09 10:42:59;;;;;;;65.10;32.00;;;;;;;3.76;100.00;93966.13;4997687;28;20252;-62
2021/12/09 10:45:34;;;;;;;73.20;37.57;;;;;;;3.06;100.00;93955.88;5015649;28;20265;-59
2021/12/09 10:48:05;;;;;;;73.00;36.80;;;;;;;3.68;100.00;93966.66;5015329;28;20178;-60
2021/12/09 10:50:39;;;;;;;74.90;35.03;;;;;;;3.78;100.00;93987.72;5022318;22;20317;-59
2021/12/09 10:55:58;;;;;;;71.83;36.30;;;;;;;4.08;100.00;93950.41;5015217;28;20196;-63
2021/12/09 10:58:37;;;;;;;67.77;34.87;;;;;;;3.98;100.00;93956.19;5015208;28;20218;-63
2021/12/09 11:01:09;;;;;;;75.50;39.40;;;;;;;4.10;100.00;93923.44;5015083;28;20213;-59
2021/12/09 11:03:42;;;;;;;68.40;37.40;;;;;;;3.58;100.00;93960.66;5014990;28;20633;-63
2021/12/09 11:06:13;;;;;;;79.33;35.03;;;;;;;3.88;100.00;93942.69;5036907;22;20247;-63
2021/12/09 11:08:45;;;;;;;69.47;33.90;;;;;;;4.18;100.00;93938.00;5034825;28;20647;-64
2021/12/09 11:11:28;;;;;;;71.30;36.20;;;;;;;3.89;100.00;93941.75;5035000;28;20289;-62
2021/12/09 11:14:00;;;;;;;75.77;39.00;;;;;;;3.87;100.00;93948.59;5034430;28;20173;-62
2021/12/09 11:16:37;;;;;;;75.33;36.80;;;;;;;3.94;100.00;93924.66;5034637;28;20198;-64
2021/12/09 11:19:07;;;;;;;72.07;38.10;;;;;;;3.90;100.00;93938.34;5033377;28;20631;-65
2021/12/09 11:21:37;;;;;;;77.77;36.20;;;;;;;3.97;100.00;93910.13;5034273;28;20209;-61